createdAt,value
2023-03-07T00:00:20.366Z,25.60
2023-03-07T00:02:51.857Z,29.33
2023-03-07T00:05:20.331Z,27.03
2023-03-07T00:07:48.249Z,26.67
2023-03-07T00:10:16.582Z,26.95
2023-03-07T00:12:44.558Z,28.38
2023-03-07T00:15:15.515Z,26.02
2023-03-07T00:17:46.604Z,30.02
2023-03-07T00:20:15.434Z,26.23
2023-03-07T00:22:46.872Z,29.65
2023-03-07T00:25:15.448Z,24.55
2023-03-07T00:27:45.744Z,23.70
2023-03-07T00:30:15.310Z,28.75
2023-03-07T00:32:43.793Z,26.60
2023-03-07T00:35:11.958Z,24.55
2023-03-07T00:37:39.954Z,21.40
2023-03-07T00:40:09.891Z,25.90
2023-03-07T00:42:37.731Z,29.48
2023-03-07T00:45:10.921Z,24.00
2023-03-07T00:47:40.892Z,27.35
2023-03-07T00:50:09.562Z,30.42
2023-03-07T00:52:37.542Z,25.65
2023-03-07T00:55:06.176Z,29.13
2023-03-07T00:57:34.153Z,26.83
2023-03-07T01:00:02.156Z,22.45
2023-03-07T01:02:30.103Z,29.85
2023-03-07T01:04:59.455Z,22.10
2023-03-07T01:07:27.384Z,27.35
2023-03-07T01:09:55.388Z,32.47
2023-03-07T01:12:23.334Z,26.65
2023-03-07T01:14:51.753Z,28.08
2023-03-07T01:17:19.763Z,26.52
2023-03-07T01:19:47.696Z,27.60
2023-03-07T01:22:17.110Z,25.25
2023-03-07T01:24:45.104Z,24.58
2023-03-07T01:27:13.018Z,27.00
2023-03-07T01:29:41.012Z,26.73
2023-03-07T01:32:09.066Z,20.63
2023-03-07T01:34:37.953Z,24.38
2023-03-07T01:37:06.042Z,25.35
2023-03-07T01:39:35.528Z,24.48
2023-03-07T01:42:03.465Z,24.83
2023-03-07T01:44:32.656Z,27.10
2023-03-07T01:47:01.570Z,23.85
2023-03-07T01:49:34.171Z,32.50
2023-03-07T01:52:06.343Z,19.52
2023-03-07T01:54:41.769Z,26.45
2023-03-07T01:57:10.429Z,25.98
2023-03-07T01:59:45.348Z,24.45
2023-03-07T02:02:20.976Z,26.88
2023-03-07T02:04:55.492Z,25.88
2023-03-07T02:07:28.199Z,25.23
2023-03-07T02:09:59.206Z,25.50
2023-03-07T02:12:27.269Z,26.70
2023-03-07T02:14:55.398Z,23.73
2023-03-07T02:17:24.782Z,25.10
2023-03-07T02:20:01.752Z,24.85
2023-03-07T02:22:30.662Z,27.05
2023-03-07T02:25:03.921Z,24.90
2023-03-07T02:27:36.829Z,24.30
2023-03-07T02:30:05.485Z,25.20
2023-03-07T02:32:33.697Z,27.08
2023-03-07T02:35:01.853Z,26.95
2023-03-07T02:37:33.725Z,25.55
2023-03-07T02:40:06.567Z,24.63
2023-03-07T02:42:39.930Z,25.63
2023-03-07T02:45:11.561Z,27.42
2023-03-07T02:47:39.573Z,22.57
2023-03-07T02:50:08.505Z,21.48
2023-03-07T02:52:36.430Z,23.00
2023-03-07T02:55:04.534Z,24.77
2023-03-07T02:57:32.494Z,28.48
2023-03-07T03:00:01.732Z,24.05
2023-03-07T03:02:29.791Z,25.25
2023-03-07T03:05:02.741Z,25.70
2023-03-07T03:07:31.189Z,24.70
2023-03-07T03:10:10.705Z,25.88
2023-03-07T03:12:42.817Z,23.88
2023-03-07T03:15:16.075Z,23.92
2023-03-07T03:17:49.852Z,22.98
2023-03-07T03:20:19.442Z,22.52
2023-03-07T03:22:56.425Z,26.88
2023-03-07T03:25:25.556Z,26.63
2023-03-07T03:27:58.321Z,25.77
2023-03-07T03:30:32.698Z,24.70
2023-03-07T03:33:05.216Z,26.23
2023-03-07T03:35:41.392Z,24.35
2023-03-07T03:38:18.398Z,21.73
2023-03-07T03:40:52.349Z,27.05
2023-03-07T03:43:27.964Z,26.17
2023-03-07T03:46:08.140Z,24.20
2023-03-07T03:48:47.036Z,28.95
2023-03-07T03:51:15.804Z,24.67
2023-03-07T03:53:44.196Z,23.58
2023-03-07T03:56:18.032Z,27.60
2023-03-07T03:58:54.180Z,26.15
2023-03-07T04:01:39.882Z,23.08
2023-03-07T04:04:14.165Z,20.73
2023-03-07T04:06:53.865Z,23.65
2023-03-07T04:09:24.732Z,27.00
2023-03-07T04:11:56.510Z,28.10
2023-03-07T04:14:30.474Z,21.10
2023-03-07T04:17:14.882Z,28.95
2023-03-07T04:19:48.174Z,22.25
2023-03-07T04:22:23.985Z,21.75
2023-03-07T04:24:52.728Z,23.48
2023-03-07T04:27:35.770Z,29.45
2023-03-07T04:30:08.235Z,26.70
2023-03-07T04:32:48.009Z,23.90
2023-03-07T04:35:19.498Z,28.00
2023-03-07T04:37:50.810Z,24.48
2023-03-07T04:40:24.278Z,22.92
2023-03-07T04:43:00.518Z,30.15
2023-03-07T04:45:32.361Z,30.90
2023-03-07T04:48:04.684Z,26.45
2023-03-07T04:50:42.742Z,26.10
2023-03-07T04:53:17.406Z,26.10
2023-03-07T04:55:46.633Z,25.60
2023-03-07T04:58:16.900Z,25.40
2023-03-07T05:00:50.348Z,25.33
2023-03-07T05:03:29.258Z,21.48
2023-03-07T05:05:57.716Z,27.42
2023-03-07T05:08:26.468Z,24.45
2023-03-07T05:10:57.505Z,27.35
2023-03-07T05:13:26.553Z,26.08
2023-03-07T05:15:56.783Z,25.85
2023-03-07T05:18:31.039Z,26.88
2023-03-07T05:21:00.784Z,30.35
2023-03-07T05:23:38.236Z,28.02
2023-03-07T05:26:12.078Z,27.20
2023-03-07T05:28:41.693Z,28.90
2023-03-07T05:31:17.496Z,23.35
2023-03-07T05:33:53.260Z,26.15
2023-03-07T05:36:23.966Z,23.73
2023-03-07T05:38:54.055Z,25.42
2023-03-07T05:41:25.267Z,23.75
2023-03-07T05:43:56.400Z,24.48
2023-03-07T05:46:39.350Z,26.77
2023-03-07T05:49:14.951Z,22.27
2023-03-07T05:51:48.359Z,21.13
2023-03-07T05:54:16.858Z,19.45
2023-03-07T05:56:45.197Z,26.67
2023-03-07T05:59:15.678Z,22.30
2023-03-07T06:02:00.052Z,22.58
2023-03-07T06:04:41.032Z,23.75
2023-03-07T06:07:14.332Z,20.45
2023-03-07T06:09:54.627Z,22.73
2023-03-07T06:12:26.430Z,23.38
2023-03-07T06:14:54.890Z,13.57
2023-03-07T06:17:25.910Z,22.85
2023-03-07T06:20:03.987Z,24.45
2023-03-07T06:22:42.988Z,24.58
2023-03-07T06:25:13.146Z,19.35
2023-03-07T06:30:19.534Z,21.45
2023-03-07T06:32:50.072Z,20.67
2023-03-07T06:35:40.118Z,24.10
2023-03-07T06:38:15.793Z,19.60
2023-03-07T06:40:48.222Z,22.10
2023-03-07T06:45:44.682Z,21.40
2023-03-07T06:48:17.902Z,19.80
2023-03-07T06:50:47.844Z,20.00
2023-03-07T06:53:18.179Z,18.88
2023-03-07T06:55:53.502Z,24.88
2023-03-07T06:58:24.885Z,22.25
2023-03-07T07:00:52.929Z,19.83
2023-03-07T07:03:21.426Z,20.92
2023-03-07T07:05:53.478Z,21.90
2023-03-07T07:08:21.532Z,16.63
2023-03-07T07:10:51.483Z,18.50
2023-03-07T07:13:19.413Z,21.55
2023-03-07T07:15:48.469Z,18.85
2023-03-07T07:18:16.836Z,20.63
2023-03-07T07:20:44.748Z,21.83
2023-03-07T07:23:14.030Z,21.20
2023-03-07T07:25:41.999Z,19.23
2023-03-07T07:28:09.893Z,20.50
2023-03-07T07:30:37.823Z,17.13
2023-03-07T07:33:05.843Z,18.83
2023-03-07T07:35:33.786Z,21.77
2023-03-07T07:38:01.685Z,22.50
2023-03-07T07:40:31.035Z,20.40
2023-03-07T07:42:58.937Z,21.55
2023-03-07T07:45:26.930Z,18.58
2023-03-07T07:47:54.971Z,17.35
2023-03-07T07:50:24.324Z,15.30
2023-03-07T07:52:55.221Z,18.95
2023-03-07T07:55:27.720Z,19.45
2023-03-07T08:00:25.114Z,18.63
2023-03-07T08:02:56.137Z,19.33
2023-03-07T08:05:24.515Z,15.02
2023-03-07T08:07:52.481Z,15.65
2023-03-07T08:10:20.731Z,17.10
2023-03-07T08:12:53.709Z,17.48
2023-03-07T08:15:23.254Z,17.85
2023-03-07T08:17:54.745Z,15.18
2023-03-07T08:20:25.568Z,18.63
2023-03-07T08:22:53.483Z,14.13
2023-03-07T08:25:25.635Z,15.13
2023-03-07T08:27:55.449Z,15.18
2023-03-07T08:30:26.476Z,13.55
2023-03-07T08:32:59.183Z,15.27
2023-03-07T08:35:28.339Z,15.80
2023-03-07T08:38:00.609Z,14.23
2023-03-07T08:40:29.725Z,15.23
2023-03-07T08:43:01.031Z,12.85
2023-03-07T08:45:31.725Z,16.48
2023-03-07T08:48:00.130Z,10.05
2023-03-07T08:50:30.880Z,14.63
2023-03-07T08:52:58.795Z,14.95
2023-03-07T08:55:26.804Z,17.80
2023-03-07T08:57:54.728Z,16.92
2023-03-07T09:00:23.102Z,14.93
2023-03-07T09:02:56.972Z,11.25
2023-03-07T09:05:24.957Z,15.30
2023-03-07T09:07:52.911Z,17.55
2023-03-07T09:10:22.183Z,13.32
2023-03-07T09:12:51.112Z,16.98
2023-03-07T09:15:19.290Z,14.82
2023-03-07T09:17:47.229Z,12.68
2023-03-07T09:20:17.938Z,17.08
2023-03-07T09:22:46.669Z,16.67
2023-03-07T09:25:14.765Z,15.70
2023-03-07T09:27:45.466Z,13.80
2023-03-07T09:30:14.479Z,15.85
2023-03-07T09:32:42.563Z,13.70
2023-03-07T09:35:11.424Z,10.77
2023-03-07T09:37:40.700Z,12.77
2023-03-07T09:40:13.458Z,16.95
2023-03-07T09:42:53.565Z,14.48
2023-03-07T09:45:30.408Z,10.15
2023-03-07T09:48:18.351Z,9.75
2023-03-07T09:50:54.431Z,15.88
2023-03-07T09:53:38.364Z,8.27
2023-03-07T09:56:13.366Z,9.07
2023-03-07T09:58:45.502Z,12.07
2023-03-07T10:01:16.397Z,17.35
2023-03-07T10:03:52.606Z,11.00
2023-03-07T10:06:26.218Z,9.10
2023-03-07T10:08:56.689Z,10.55
2023-03-07T10:11:39.983Z,8.13
2023-03-07T10:14:29.203Z,11.23
2023-03-07T10:17:08.027Z,7.43
2023-03-07T10:19:43.141Z,8.15
2023-03-07T10:22:19.599Z,8.90
2023-03-07T10:25:09.339Z,14.27
2023-03-07T10:27:37.255Z,11.90
2023-03-07T10:30:15.605Z,8.55
2023-03-07T10:32:47.346Z,8.25
2023-03-07T10:35:19.232Z,8.90
2023-03-07T10:37:51.236Z,11.05
2023-03-07T10:40:35.780Z,11.70
2023-03-07T10:43:05.973Z,11.38
2023-03-07T10:45:35.171Z,9.07
2023-03-07T10:48:09.020Z,9.77
2023-03-07T10:50:43.672Z,9.43
2023-03-07T10:53:23.660Z,10.35
2023-03-07T10:55:53.358Z,10.88
2023-03-07T10:58:24.849Z,9.38
2023-03-07T11:01:02.237Z,12.00
2023-03-07T11:03:46.068Z,9.55
2023-03-07T11:06:31.762Z,9.95
2023-03-07T11:09:10.786Z,10.38
2023-03-07T11:11:40.036Z,11.27
2023-03-07T11:14:09.876Z,9.95
2023-03-07T11:16:42.472Z,8.80
2023-03-07T11:19:33.986Z,8.18
2023-03-07T11:22:06.161Z,11.65
2023-03-07T11:24:40.465Z,12.02
2023-03-07T11:27:22.669Z,10.85
2023-03-07T11:30:17.056Z,9.73
2023-03-07T11:32:58.570Z,11.63
2023-03-07T11:35:41.319Z,11.82
2023-03-07T11:43:22.501Z,8.80
2023-03-07T11:45:57.808Z,12.18
2023-03-07T11:48:43.807Z,8.35
2023-03-07T11:51:32.938Z,9.20
2023-03-07T11:54:08.855Z,8.73
2023-03-07T11:56:41.467Z,8.70
2023-03-07T11:59:49.760Z,9.70
2023-03-07T12:02:34.021Z,7.60
2023-03-07T12:05:15.418Z,9.10
2023-03-07T12:07:57.583Z,10.27
2023-03-07T12:10:38.221Z,9.50
2023-03-07T12:13:16.538Z,10.13
2023-03-07T12:15:52.872Z,8.75
2023-03-07T12:18:38.887Z,13.30
2023-03-07T12:21:23.824Z,12.63
2023-03-07T12:23:59.604Z,11.23
2023-03-07T12:26:36.817Z,11.35
2023-03-07T12:29:20.108Z,7.95
2023-03-07T12:32:03.357Z,11.43
2023-03-07T12:34:49.013Z,11.85
2023-03-07T12:37:26.091Z,8.88
2023-03-07T12:40:01.333Z,13.57
2023-03-07T12:42:36.715Z,13.20
2023-03-07T12:45:16.116Z,9.38
2023-03-07T12:47:58.797Z,10.25
2023-03-07T12:50:39.659Z,11.02
2023-03-07T12:53:22.737Z,10.90
2023-03-07T12:55:57.293Z,8.52
2023-03-07T12:58:38.368Z,11.23
2023-03-07T13:01:17.985Z,9.93
2023-03-07T13:04:03.732Z,11.17
2023-03-07T13:06:38.425Z,15.52
2023-03-07T13:09:07.957Z,11.35
2023-03-07T13:12:27.131Z,9.43
2023-03-07T13:15:02.717Z,9.95
2023-03-07T13:18:01.202Z,11.65
2023-03-07T13:21:09.763Z,12.50
2023-03-07T13:23:46.063Z,11.77
2023-03-07T13:26:25.484Z,14.48
2023-03-07T13:28:57.891Z,9.95
2023-03-07T13:31:53.103Z,9.82
2023-03-07T13:34:48.781Z,13.00
2023-03-07T13:37:56.901Z,10.30
2023-03-07T13:40:56.298Z,9.48
2023-03-07T13:43:59.797Z,16.25
2023-03-07T13:46:55.809Z,12.13
2023-03-07T13:49:48.041Z,13.32
2023-03-07T13:52:40.064Z,10.70
2023-03-07T13:55:40.489Z,8.20
2023-03-07T13:58:20.401Z,10.00
2023-03-07T14:00:57.471Z,10.55
2023-03-07T14:03:30.556Z,17.65
2023-03-07T14:06:02.721Z,12.15
2023-03-07T14:08:33.966Z,12.80
2023-03-07T14:11:02.209Z,9.98
2023-03-07T14:13:52.934Z,11.93
2023-03-07T14:16:35.198Z,11.38
2023-03-07T14:19:13.602Z,12.88
2023-03-07T14:21:55.927Z,13.95
2023-03-07T14:24:51.552Z,13.88
2023-03-07T14:27:20.056Z,12.52
2023-03-07T14:29:58.048Z,11.50
2023-03-07T14:32:38.598Z,14.10
2023-03-07T14:35:15.638Z,11.50
2023-03-07T14:37:50.470Z,9.48
2023-03-07T14:40:35.956Z,10.02
2023-03-07T14:43:24.238Z,10.98
2023-03-07T14:46:02.326Z,11.25
2023-03-07T14:48:54.604Z,10.25
2023-03-07T14:51:28.027Z,13.13
2023-03-07T14:54:08.121Z,8.35
2023-03-07T14:56:36.683Z,9.13
2023-03-07T14:59:27.578Z,9.68
2023-03-07T15:02:06.295Z,10.55
2023-03-07T15:04:41.974Z,8.27
2023-03-07T15:07:22.710Z,8.52
2023-03-07T15:09:50.676Z,12.70
2023-03-07T15:12:29.454Z,8.90
2023-03-07T15:15:00.742Z,9.27
2023-03-07T15:17:31.746Z,6.90
2023-03-07T15:20:03.861Z,10.35
2023-03-07T15:22:39.274Z,8.50
2023-03-07T15:25:08.368Z,8.35
2023-03-07T15:27:36.619Z,8.27
2023-03-07T15:30:05.916Z,8.95
2023-03-07T15:32:36.697Z,13.23
2023-03-07T15:35:15.350Z,10.73
2023-03-07T15:37:58.364Z,9.95
2023-03-07T15:40:33.667Z,11.50
2023-03-07T15:43:17.586Z,9.63
2023-03-07T15:45:59.903Z,11.00
2023-03-07T15:48:35.649Z,11.35
2023-03-07T15:51:06.508Z,9.80
2023-03-07T15:53:39.031Z,13.10
2023-03-07T15:58:41.346Z,14.73
2023-03-07T16:01:20.816Z,14.55
2023-03-07T16:03:51.143Z,10.27
2023-03-07T16:06:35.461Z,13.93
2023-03-07T16:09:12.088Z,11.68
2023-03-07T16:11:40.921Z,12.73
2023-03-07T16:14:21.675Z,11.45
2023-03-07T16:16:51.753Z,12.13
2023-03-07T16:19:19.670Z,14.35
2023-03-07T16:21:48.929Z,16.35
2023-03-07T16:24:18.200Z,15.48
2023-03-07T16:26:47.702Z,14.63
2023-03-07T16:29:17.781Z,13.63
2023-03-07T16:31:46.450Z,15.20
2023-03-07T16:34:17.279Z,16.13
2023-03-07T16:36:47.284Z,13.32
2023-03-07T16:39:23.865Z,13.27
2023-03-07T16:41:53.443Z,12.40
2023-03-07T16:44:23.679Z,14.15
2023-03-07T16:46:57.142Z,12.75
2023-03-07T16:49:25.306Z,10.13
2023-03-07T16:52:05.293Z,12.45
2023-03-07T16:54:34.637Z,15.60
2023-03-07T16:57:05.301Z,13.35
2023-03-07T16:59:35.762Z,12.20
2023-03-07T17:02:12.713Z,11.07
2023-03-07T17:04:48.459Z,16.30
2023-03-07T17:07:19.738Z,12.27
2023-03-07T17:09:48.264Z,12.38
2023-03-07T17:12:19.097Z,13.35
2023-03-07T17:14:47.514Z,11.88
2023-03-07T17:17:25.248Z,9.63
2023-03-07T17:19:57.734Z,9.82
2023-03-07T17:24:56.138Z,11.38
2023-03-07T17:27:26.065Z,15.70
2023-03-07T17:29:56.178Z,14.48
2023-03-07T17:32:24.241Z,9.30
2023-03-07T17:34:52.394Z,11.45
2023-03-07T17:37:22.036Z,9.75
2023-03-07T17:39:50.163Z,15.05
2023-03-07T17:42:18.173Z,11.90
2023-03-07T17:44:48.636Z,12.40
2023-03-07T17:47:16.556Z,12.38
2023-03-07T17:49:46.734Z,13.27
2023-03-07T17:52:19.957Z,11.57
2023-03-07T17:54:48.754Z,11.25
2023-03-07T17:57:17.093Z,11.75
2023-03-07T17:59:45.182Z,12.65
2023-03-07T18:02:15.711Z,10.70
2023-03-07T18:04:45.990Z,13.00
2023-03-07T18:07:14.098Z,10.95
2023-03-07T18:09:42.224Z,13.65
2023-03-07T18:12:10.634Z,10.40
2023-03-07T18:14:41.538Z,12.02
2023-03-07T18:17:09.576Z,17.42
2023-03-07T18:19:42.157Z,11.57
2023-03-07T18:22:10.178Z,13.15
2023-03-07T18:24:38.467Z,11.57
2023-03-07T18:27:08.650Z,9.73
2023-03-07T18:29:36.630Z,9.82
2023-03-07T18:32:04.684Z,9.32
2023-03-07T18:34:33.077Z,8.90
2023-03-07T18:37:06.569Z,10.70
2023-03-07T18:39:35.624Z,13.75
2023-03-07T18:42:04.180Z,9.75
2023-03-07T18:44:43.160Z,13.93
2023-03-07T18:47:14.427Z,10.85
2023-03-07T18:49:43.254Z,12.63
2023-03-07T18:52:15.024Z,9.73
2023-03-07T18:54:46.002Z,12.55
2023-03-07T18:57:17.712Z,11.90
2023-03-07T18:59:46.491Z,9.32
2023-03-07T19:02:17.025Z,10.13
2023-03-07T19:04:55.701Z,11.07
2023-03-07T19:07:33.428Z,10.05
2023-03-07T19:10:04.217Z,12.82
2023-03-07T19:12:32.887Z,17.35
2023-03-07T19:15:07.981Z,15.10
2023-03-07T19:17:43.706Z,13.77
2023-03-07T19:20:14.251Z,14.02
2023-03-07T19:22:53.903Z,12.13
2023-03-07T19:25:32.824Z,13.88
2023-03-07T19:28:01.463Z,15.95
2023-03-07T19:30:35.917Z,16.02
2023-03-07T19:33:06.161Z,10.90
2023-03-07T19:35:36.885Z,13.40
2023-03-07T19:38:11.369Z,14.75
2023-03-07T19:40:52.322Z,12.43
2023-03-07T19:43:23.165Z,16.35
2023-03-07T19:45:53.685Z,11.10
2023-03-07T19:48:27.951Z,16.02
2023-03-07T19:51:02.961Z,16.42
2023-03-07T19:53:37.341Z,14.27
2023-03-07T19:56:10.643Z,13.95
2023-03-07T19:58:39.523Z,12.95
2023-03-07T20:01:10.199Z,17.05
2023-03-07T20:03:48.789Z,12.10
2023-03-07T20:06:20.426Z,12.95
2023-03-07T20:08:55.932Z,14.60
2023-03-07T20:14:01.048Z,14.15
2023-03-07T20:16:38.286Z,13.85
2023-03-07T20:19:19.794Z,14.73
2023-03-07T20:21:50.926Z,13.98
2023-03-07T20:24:25.450Z,13.05
2023-03-07T20:26:55.930Z,13.38
2023-03-07T20:29:30.850Z,11.02
2023-03-07T20:34:40.421Z,12.63
2023-03-07T20:37:16.573Z,11.18
2023-03-07T20:39:53.260Z,14.73
2023-03-07T20:42:24.430Z,9.85
2023-03-07T20:44:57.245Z,12.38
2023-03-07T20:47:41.501Z,13.25
2023-03-07T20:50:17.083Z,14.68
2023-03-07T20:52:46.022Z,14.82
2023-03-07T20:55:16.212Z,13.68
2023-03-07T20:57:51.703Z,12.82
2023-03-07T21:00:24.092Z,13.10
2023-03-07T21:03:05.218Z,15.10
2023-03-07T21:05:34.456Z,16.87
2023-03-07T21:08:03.013Z,15.27
2023-03-07T21:10:35.266Z,14.98
2023-03-07T21:13:04.036Z,13.77
2023-03-07T21:15:33.570Z,13.73
2023-03-07T21:18:05.834Z,13.50
2023-03-07T21:20:44.194Z,15.57
2023-03-07T21:23:12.833Z,10.98
2023-03-07T21:25:46.767Z,10.68
2023-03-07T21:28:16.211Z,13.70
2023-03-07T21:30:45.025Z,12.63
2023-03-07T21:33:24.434Z,12.43
2023-03-07T21:35:55.429Z,13.63
2023-03-07T21:38:30.222Z,14.15
2023-03-07T21:41:14.673Z,12.00
2023-03-07T21:43:46.119Z,13.02
2023-03-07T21:46:16.464Z,10.73
2023-03-07T21:48:56.543Z,9.90
2023-03-07T21:51:25.535Z,10.77
2023-03-07T21:53:54.607Z,13.30
2023-03-07T21:56:42.568Z,14.00
2023-03-07T22:01:56.560Z,16.33
2023-03-07T22:04:32.774Z,13.23
2023-03-07T22:07:04.514Z,13.70
2023-03-07T22:09:40.368Z,11.53
2023-03-07T22:12:23.051Z,12.95
2023-03-07T22:17:25.136Z,10.80
2023-03-07T22:19:53.988Z,13.82
2023-03-07T22:22:25.750Z,13.00
2023-03-07T22:24:54.443Z,10.20
2023-03-07T22:27:26.479Z,12.15
2023-03-07T22:29:54.912Z,10.98
2023-03-07T22:32:26.538Z,15.85
2023-03-07T22:34:57.252Z,8.20
2023-03-07T22:37:27.919Z,13.75
2023-03-07T22:40:05.302Z,10.93
2023-03-07T22:42:41.799Z,16.23
2023-03-07T22:45:20.241Z,13.48
2023-03-07T22:47:57.566Z,13.68
2023-03-07T22:50:28.894Z,9.45
2023-03-07T22:52:56.879Z,12.82
2023-03-07T22:55:25.034Z,11.48
2023-03-07T22:57:54.384Z,13.38
2023-03-07T23:00:23.009Z,11.68
2023-03-07T23:02:51.289Z,11.52
2023-03-07T23:05:19.256Z,10.38
2023-03-07T23:07:48.694Z,11.05
2023-03-07T23:10:17.112Z,13.45
2023-03-07T23:12:45.125Z,11.43
2023-03-07T23:15:14.796Z,12.80
2023-03-07T23:17:42.726Z,10.75
2023-03-07T23:20:11.761Z,14.20
2023-03-07T23:22:42.888Z,13.63
2023-03-07T23:25:12.121Z,14.43
2023-03-07T23:27:40.206Z,11.00
2023-03-07T23:30:09.027Z,11.32
2023-03-07T23:32:39.851Z,12.88
2023-03-07T23:35:08.395Z,13.40
2023-03-07T23:37:36.236Z,13.25
2023-03-07T23:40:05.127Z,11.98
2023-03-07T23:42:33.121Z,10.15
2023-03-07T23:45:04.188Z,13.77
2023-03-07T23:47:32.148Z,14.27
2023-03-07T23:50:01.432Z,14.57
2023-03-07T23:52:29.373Z,12.45
2023-03-07T23:54:57.386Z,12.00
2023-03-07T23:57:25.427Z,11.15
2023-03-07T23:59:53.403Z,13.95
